createdAt,value
2023-02-14T00:01:46.966Z,5.57
2023-02-14T00:04:15.520Z,5.56
2023-02-14T00:06:44.363Z,5.59
2023-02-14T00:09:14.777Z,5.56
2023-02-14T00:11:43.404Z,5.56
2023-02-14T00:14:31.766Z,5.55
2023-02-14T00:17:00.007Z,5.55
2023-02-14T00:19:28.683Z,5.52
2023-02-14T00:21:57.101Z,5.53
2023-02-14T00:24:27.178Z,5.52
2023-02-14T00:26:55.481Z,5.53
2023-02-14T00:29:26.662Z,5.50
2023-02-14T00:31:54.810Z,5.49
2023-02-14T00:34:23.133Z,5.50
2023-02-14T00:36:51.754Z,5.49
2023-02-14T00:39:20.692Z,5.49
2023-02-14T00:41:49.031Z,5.50
2023-02-14T00:44:17.090Z,5.49
2023-02-14T00:46:46.886Z,5.46
2023-02-14T00:49:16.045Z,5.47
2023-02-14T00:51:44.180Z,5.46
2023-02-14T00:54:12.245Z,5.47
2023-02-14T00:56:40.208Z,5.49
2023-02-14T00:59:09.154Z,5.49
2023-02-14T01:01:37.266Z,5.47
2023-02-14T01:04:07.808Z,5.45
2023-02-14T01:06:35.910Z,5.45
2023-02-14T01:09:04.613Z,5.45
2023-02-14T01:11:33.056Z,5.40
2023-02-14T01:14:01.991Z,5.45
2023-02-14T01:16:31.019Z,5.46
2023-02-14T01:19:00.108Z,5.43
2023-02-14T01:21:31.119Z,5.42
2023-02-14T01:24:01.034Z,5.40
2023-02-14T01:26:30.996Z,5.43
2023-02-14T01:28:59.067Z,5.40
2023-02-14T01:31:29.178Z,5.42
2023-02-14T01:34:00.121Z,5.40
2023-02-14T01:36:31.205Z,5.39
2023-02-14T01:39:02.742Z,5.39
2023-02-14T01:41:32.826Z,5.36
2023-02-14T01:44:04.673Z,5.38
2023-02-14T01:46:34.419Z,5.38
2023-02-14T01:49:08.323Z,5.36
2023-02-14T01:51:39.811Z,5.36
2023-02-14T01:54:08.861Z,5.35
2023-02-14T01:56:40.029Z,5.39
2023-02-14T01:59:12.831Z,5.39
2023-02-14T02:01:42.534Z,5.36
2023-02-14T02:04:12.328Z,5.38
2023-02-14T02:06:44.449Z,5.38
2023-02-14T02:09:16.606Z,5.36
2023-02-14T02:11:45.172Z,5.34
2023-02-14T02:14:23.083Z,5.34
2023-02-14T02:17:04.484Z,5.35
2023-02-14T02:20:09.128Z,5.36
2023-02-14T02:22:59.960Z,5.35
2023-02-14T02:25:46.409Z,5.34
2023-02-14T02:28:32.536Z,5.36
2023-02-14T02:31:16.672Z,5.34
2023-02-14T02:34:22.427Z,5.34
2023-02-14T02:37:24.995Z,5.35
2023-02-14T02:40:04.775Z,5.35
2023-02-14T02:42:40.418Z,5.35
2023-02-14T02:45:13.757Z,5.34
2023-02-14T02:47:46.050Z,5.34
2023-02-14T02:50:36.973Z,5.32
2023-02-14T02:53:09.596Z,5.32
2023-02-14T02:56:01.916Z,5.29
2023-02-14T02:58:32.807Z,5.31
2023-02-14T03:01:02.621Z,5.29
2023-02-14T03:03:51.315Z,5.24
2023-02-14T03:06:19.367Z,5.29
2023-02-14T03:08:48.935Z,5.28
2023-02-14T03:11:17.457Z,5.26
2023-02-14T03:14:00.801Z,5.25
2023-02-14T03:16:34.796Z,5.26
2023-02-14T03:19:13.774Z,5.26
2023-02-14T03:21:45.137Z,5.28
2023-02-14T03:24:20.679Z,5.29
2023-02-14T03:26:50.309Z,5.28
2023-02-14T03:29:24.160Z,5.25
2023-02-14T03:31:59.414Z,5.26
2023-02-14T03:34:33.020Z,5.24
2023-02-14T03:37:05.142Z,5.26
2023-02-14T03:39:40.596Z,5.28
2023-02-14T03:42:14.554Z,5.24
2023-02-14T03:44:43.373Z,5.26
2023-02-14T03:47:13.766Z,5.26
2023-02-14T03:49:46.462Z,5.25
2023-02-14T03:52:15.443Z,5.26
2023-02-14T03:54:49.057Z,5.21
2023-02-14T03:57:21.306Z,5.25
2023-02-14T03:59:49.567Z,5.24
2023-02-14T04:02:21.678Z,5.21
2023-02-14T04:04:51.660Z,5.21
2023-02-14T04:07:21.914Z,5.21
2023-02-14T04:09:51.533Z,5.21
2023-02-14T04:12:32.367Z,5.18
2023-02-14T04:15:06.395Z,5.22
2023-02-14T04:17:52.270Z,5.19
2023-02-14T04:20:20.553Z,5.21
2023-02-14T04:22:49.203Z,5.21
2023-02-14T04:25:19.558Z,5.19
2023-02-14T04:27:47.875Z,5.19
2023-02-14T04:30:18.117Z,5.19
2023-02-14T04:32:46.475Z,5.16
2023-02-14T04:35:15.972Z,5.18
2023-02-14T04:37:45.588Z,5.18
2023-02-14T04:40:17.315Z,5.19
2023-02-14T04:42:47.284Z,5.19
2023-02-14T04:45:15.873Z,5.21
2023-02-14T04:47:44.300Z,5.19
2023-02-14T04:50:12.377Z,5.21
2023-02-14T04:52:40.828Z,5.18
2023-02-14T04:55:11.223Z,5.16
2023-02-14T04:57:39.655Z,5.18
2023-02-14T05:00:10.531Z,5.16
2023-02-14T05:02:39.113Z,5.12
2023-02-14T05:05:07.844Z,5.16
2023-02-14T05:07:35.876Z,5.14
2023-02-14T05:10:07.302Z,5.12
2023-02-14T05:12:35.743Z,5.12
2023-02-14T05:15:05.291Z,5.14
2023-02-14T05:17:34.876Z,5.12
2023-02-14T05:20:03.220Z,5.12
2023-02-14T05:22:32.323Z,5.09
2023-02-14T05:25:00.392Z,5.09
2023-02-14T05:27:28.476Z,5.08
2023-02-14T05:29:56.646Z,5.08
2023-02-14T05:32:25.488Z,5.07
2023-02-14T05:34:55.188Z,5.08
2023-02-14T05:37:23.234Z,5.08
2023-02-14T05:39:52.307Z,5.05
2023-02-14T05:42:21.582Z,5.05
2023-02-14T05:44:49.733Z,5.07
2023-02-14T05:47:17.970Z,5.04
2023-02-14T05:49:46.082Z,5.03
2023-02-14T05:52:15.496Z,5.07
2023-02-14T05:54:43.944Z,5.04
2023-02-14T05:57:13.151Z,5.03
2023-02-14T05:59:41.590Z,5.03
2023-02-14T06:02:10.276Z,5.04
2023-02-14T06:04:38.449Z,5.04
2023-02-14T06:07:08.017Z,5.08
2023-02-14T06:09:39.814Z,5.12
2023-02-14T06:12:10.411Z,5.11
2023-02-14T06:14:38.745Z,5.25
2023-02-14T06:17:06.912Z,5.31
2023-02-14T06:19:35.544Z,5.24
2023-02-14T06:22:04.067Z,5.26
2023-02-14T06:24:32.462Z,5.32
2023-02-14T06:27:02.310Z,5.31
2023-02-14T06:29:32.575Z,5.28
2023-02-14T06:32:06.083Z,5.22
2023-02-14T06:34:35.155Z,5.22
2023-02-14T06:37:03.350Z,5.22
2023-02-14T06:39:31.836Z,5.18
2023-02-14T06:41:59.913Z,5.16
2023-02-14T06:44:29.626Z,5.16
2023-02-14T06:46:57.693Z,5.12
2023-02-14T06:49:25.822Z,5.12
2023-02-14T06:51:54.185Z,5.14
2023-02-14T06:54:22.692Z,5.15
2023-02-14T06:56:50.760Z,5.15
2023-02-14T06:59:19.310Z,5.19
2023-02-14T07:01:48.977Z,5.18
2023-02-14T07:04:19.911Z,5.16
2023-02-14T07:06:48.352Z,5.16
2023-02-14T07:09:19.274Z,5.19
2023-02-14T07:11:48.290Z,5.19
2023-02-14T07:14:16.725Z,5.19
2023-02-14T07:16:45.336Z,5.22
2023-02-14T07:19:15.169Z,5.24
2023-02-14T07:21:43.235Z,5.28
2023-02-14T07:24:11.710Z,5.28
2023-02-14T07:26:50.961Z,5.31
2023-02-14T07:29:19.139Z,5.34
2023-02-14T07:31:47.597Z,5.32
2023-02-14T07:34:17.301Z,5.34
2023-02-14T07:36:45.298Z,5.35
2023-02-14T07:39:14.605Z,5.38
2023-02-14T07:41:42.607Z,5.38
2023-02-14T07:44:11.134Z,5.40
2023-02-14T07:46:39.352Z,5.43
2023-02-14T07:49:08.004Z,5.47
2023-02-14T07:51:37.563Z,5.53
2023-02-14T07:54:05.840Z,5.57
2023-02-14T07:56:34.366Z,5.65
2023-02-14T07:59:02.491Z,5.69
2023-02-14T08:01:30.641Z,5.73
2023-02-14T08:03:58.748Z,5.77
2023-02-14T08:06:28.021Z,5.80
2023-02-14T08:08:57.595Z,5.84
2023-02-14T08:11:43.025Z,5.89
2023-02-14T08:14:11.193Z,5.93
2023-02-14T08:16:43.088Z,5.97
2023-02-14T08:19:11.101Z,5.98
2023-02-14T08:21:39.409Z,6.04
2023-02-14T08:24:09.004Z,6.11
2023-02-14T08:26:37.668Z,6.15
2023-02-14T08:29:07.078Z,6.21
2023-02-14T08:31:36.658Z,6.24
2023-02-14T08:34:05.254Z,6.28
2023-02-14T08:36:34.901Z,6.31
2023-02-14T08:39:04.445Z,6.32
2023-02-14T08:41:34.265Z,6.38
2023-02-14T08:44:02.781Z,6.39
2023-02-14T08:46:31.245Z,6.41
2023-02-14T08:48:59.466Z,6.42
2023-02-14T08:51:27.627Z,6.45
2023-02-14T08:53:56.269Z,6.48
2023-02-14T08:56:24.994Z,6.50
2023-02-14T08:58:55.496Z,6.50
2023-02-14T09:01:24.098Z,6.53
2023-02-14T09:03:52.343Z,6.53
2023-02-14T09:06:20.804Z,6.52
2023-02-14T09:08:48.838Z,6.56
2023-02-14T09:11:19.380Z,6.59
2023-02-14T09:13:48.297Z,6.62
2023-02-14T09:16:21.808Z,6.62
2023-02-14T09:18:51.605Z,6.66
2023-02-14T09:21:23.639Z,6.68
2023-02-14T09:23:52.704Z,6.72
2023-02-14T09:26:21.046Z,6.76
2023-02-14T09:28:49.654Z,6.77
2023-02-14T09:31:20.793Z,6.75
2023-02-14T09:34:07.959Z,6.77
2023-02-14T09:36:53.931Z,6.77
2023-02-14T09:39:22.365Z,6.77
2023-02-14T09:42:00.712Z,6.82
2023-02-14T09:44:32.782Z,6.82
2023-02-14T09:47:07.818Z,6.77
2023-02-14T09:49:40.007Z,6.77
2023-02-14T09:52:08.766Z,6.69
2023-02-14T09:54:37.320Z,6.57
2023-02-14T09:57:12.117Z,6.57
2023-02-14T09:59:44.975Z,6.52
2023-02-14T10:02:35.273Z,6.53
2023-02-14T10:05:10.128Z,6.56
2023-02-14T10:07:46.269Z,6.57
2023-02-14T10:10:17.058Z,6.62
2023-02-14T10:12:48.900Z,6.66
2023-02-14T10:15:19.262Z,6.62
2023-02-14T10:17:52.832Z,6.61
2023-02-14T10:20:25.876Z,6.65
2023-02-14T10:23:02.507Z,6.65
2023-02-14T10:25:35.606Z,6.75
2023-02-14T10:28:04.060Z,6.80
2023-02-14T10:30:38.901Z,6.83
2023-02-14T10:33:14.981Z,6.76
2023-02-14T10:35:48.293Z,6.73
2023-02-14T10:38:19.859Z,6.71
2023-02-14T10:41:05.518Z,6.68
2023-02-14T10:43:41.058Z,6.79
2023-02-14T10:46:17.075Z,6.82
2023-02-14T10:48:58.338Z,6.79
2023-02-14T10:51:33.973Z,6.76
2023-02-14T10:57:56.246Z,6.75
2023-02-14T11:00:27.377Z,6.75
2023-02-14T11:02:59.145Z,6.80
2023-02-14T11:05:48.949Z,6.92
2023-02-14T11:08:23.234Z,7.07
2023-02-14T11:10:51.630Z,7.10
2023-02-14T11:13:34.617Z,7.10
2023-02-14T11:16:05.448Z,7.14
2023-02-14T11:18:37.469Z,7.27
2023-02-14T11:21:10.131Z,7.42
2023-02-14T11:23:40.951Z,7.51
2023-02-14T11:26:15.286Z,7.47
2023-02-14T11:28:52.034Z,7.28
2023-02-14T11:31:27.581Z,7.30
2023-02-14T11:33:55.957Z,7.30
2023-02-14T11:36:25.790Z,7.32
2023-02-14T11:38:58.272Z,7.30
2023-02-14T11:41:27.681Z,7.28
2023-02-14T11:44:15.293Z,7.21
2023-02-14T11:46:52.775Z,7.14
2023-02-14T11:49:29.297Z,7.08
2023-02-14T11:52:00.148Z,7.04
2023-02-14T11:54:35.747Z,6.96
2023-02-14T11:57:07.809Z,6.92
2023-02-14T11:59:40.610Z,6.92
2023-02-14T12:02:22.917Z,6.90
2023-02-14T12:04:53.414Z,6.87
2023-02-14T12:07:27.645Z,6.84
2023-02-14T12:10:20.396Z,6.77
2023-02-14T12:12:53.425Z,6.76
2023-02-14T12:15:36.755Z,6.80
2023-02-14T12:18:26.353Z,6.86
2023-02-14T12:20:58.248Z,6.86
2023-02-14T12:23:33.781Z,6.89
2023-02-14T12:26:04.683Z,6.90
2023-02-14T12:28:40.472Z,6.87
2023-02-14T12:31:11.949Z,6.94
2023-02-14T12:33:41.637Z,6.93
2023-02-14T12:36:13.845Z,6.97
2023-02-14T12:38:52.669Z,6.99
2023-02-14T12:41:29.196Z,6.90
2023-02-14T12:43:58.938Z,6.93
2023-02-14T12:46:43.016Z,6.92
2023-02-14T12:49:41.053Z,6.93
2023-02-14T12:52:20.849Z,6.87
2023-02-14T12:55:00.267Z,6.84
2023-02-14T12:57:36.518Z,6.86
2023-02-14T13:00:18.527Z,6.87
2023-02-14T13:03:14.456Z,6.86
2023-02-14T13:05:48.283Z,6.82
2023-02-14T13:08:25.401Z,6.80
2023-02-14T13:11:00.143Z,6.82
2023-02-14T13:13:46.652Z,6.84
2023-02-14T13:16:20.556Z,6.86
2023-02-14T13:18:51.291Z,6.89
2023-02-14T13:21:22.929Z,6.87
2023-02-14T13:23:53.780Z,6.87
2023-02-14T13:26:27.275Z,6.83
2023-02-14T13:28:58.094Z,6.82
2023-02-14T13:31:27.440Z,6.79
2023-02-14T13:33:58.934Z,6.73
2023-02-14T13:36:28.783Z,6.79
2023-02-14T13:38:58.537Z,6.80
2023-02-14T13:41:29.611Z,6.77
2023-02-14T13:44:01.635Z,6.76
2023-02-14T13:46:50.845Z,6.76
2023-02-14T13:49:27.666Z,6.77
2023-02-14T13:51:57.830Z,6.79
2023-02-14T13:54:32.883Z,6.83
2023-02-14T13:57:03.439Z,6.79
2023-02-14T13:59:35.766Z,6.79
2023-02-14T14:02:19.307Z,6.79
2023-02-14T14:04:48.414Z,6.79
2023-02-14T14:07:21.049Z,6.79
2023-02-14T14:10:02.332Z,6.77
2023-02-14T14:12:44.905Z,6.71
2023-02-14T14:15:19.377Z,6.63
2023-02-14T14:17:51.069Z,6.66
2023-02-14T14:20:42.555Z,6.66
2023-02-14T14:23:33.319Z,6.61
2023-02-14T14:26:02.968Z,6.57
2023-02-14T14:28:33.983Z,6.56
2023-02-14T14:31:02.092Z,6.53
2023-02-14T14:33:32.391Z,6.56
2023-02-14T14:36:02.812Z,6.59
2023-02-14T14:38:32.726Z,6.57
2023-02-14T14:41:02.050Z,6.61
2023-02-14T14:43:35.099Z,6.61
2023-02-14T14:46:04.348Z,6.56
2023-02-14T14:48:33.880Z,6.56
2023-02-14T14:51:04.499Z,6.56
2023-02-14T14:53:36.434Z,6.53
2023-02-14T14:56:05.099Z,6.49
2023-02-14T14:58:48.397Z,6.46
2023-02-14T15:02:00.349Z,6.46
2023-02-14T15:04:30.624Z,6.42
2023-02-14T15:07:17.795Z,6.41
2023-02-14T15:09:46.094Z,6.35
2023-02-14T15:12:44.664Z,6.36
2023-02-14T15:15:16.820Z,6.31
2023-02-14T15:17:45.635Z,6.34
2023-02-14T15:20:19.991Z,6.24
2023-02-14T15:22:50.892Z,6.21
2023-02-14T15:25:20.824Z,6.24
2023-02-14T15:27:49.710Z,6.25
2023-02-14T15:30:29.769Z,6.22
2023-02-14T15:32:59.182Z,6.17
2023-02-14T15:35:30.334Z,6.17
2023-02-14T15:38:02.009Z,6.15
2023-02-14T15:40:35.212Z,6.13
2023-02-14T15:43:17.510Z,6.10
2023-02-14T15:45:47.464Z,6.10
2023-02-14T15:48:19.448Z,6.07
2023-02-14T15:50:49.240Z,6.07
2023-02-14T15:53:30.832Z,6.01
2023-02-14T15:56:05.751Z,6.01
2023-02-14T15:58:35.574Z,6.03
2023-02-14T16:01:06.856Z,6.03
2023-02-14T16:03:38.409Z,6.00
2023-02-14T16:06:10.724Z,6.01
2023-02-14T16:08:41.684Z,6.00
2023-02-14T16:11:16.926Z,5.94
2023-02-14T16:13:46.694Z,5.93
2023-02-14T16:16:17.088Z,5.94
2023-02-14T16:18:47.699Z,5.93
2023-02-14T16:21:23.043Z,5.91
2023-02-14T16:24:12.251Z,5.89
2023-02-14T16:26:42.409Z,5.90
2023-02-14T16:29:13.106Z,5.84
2023-02-14T16:32:06.266Z,5.80
2023-02-14T16:34:34.352Z,5.73
2023-02-14T16:37:06.970Z,5.71
2023-02-14T16:39:35.552Z,5.69
2023-02-14T16:42:05.903Z,5.63
2023-02-14T16:44:34.309Z,5.60
2023-02-14T16:47:11.125Z,5.59
2023-02-14T16:49:39.185Z,5.62
2023-02-14T16:52:07.501Z,5.60
2023-02-14T16:54:35.875Z,5.60
2023-02-14T16:57:05.251Z,5.56
2023-02-14T16:59:33.435Z,5.57
2023-02-14T17:02:02.294Z,5.53
2023-02-14T17:04:31.958Z,5.50
2023-02-14T17:07:03.771Z,5.50
2023-02-14T17:09:34.028Z,5.50
2023-02-14T17:12:04.929Z,5.50
2023-02-14T17:14:34.949Z,5.49
2023-02-14T17:17:03.174Z,5.50
2023-02-14T17:19:33.220Z,5.50
2023-02-14T17:22:01.976Z,5.52
2023-02-14T17:24:30.129Z,5.53
2023-02-14T17:26:58.153Z,5.49
2023-02-14T17:29:27.502Z,5.47
2023-02-14T17:31:58.707Z,5.49
2023-02-14T17:34:27.221Z,5.47
2023-02-14T17:36:57.735Z,5.47
2023-02-14T17:39:25.829Z,5.50
2023-02-14T17:41:56.677Z,5.46
2023-02-14T17:44:24.936Z,5.46
2023-02-14T17:46:54.628Z,5.42
2023-02-14T17:49:22.996Z,5.40
2023-02-14T17:51:51.797Z,5.39
2023-02-14T17:54:21.433Z,5.38
2023-02-14T17:56:49.476Z,5.36
2023-02-14T17:59:17.759Z,5.35
2023-02-14T18:01:46.482Z,5.31
2023-02-14T18:04:14.818Z,5.31
2023-02-14T18:06:43.748Z,5.29
2023-02-14T18:09:11.833Z,5.25
2023-02-14T18:11:42.243Z,5.19
2023-02-14T18:14:10.583Z,5.16
2023-02-14T18:16:39.438Z,5.14
2023-02-14T18:19:10.189Z,5.08
2023-02-14T18:21:40.114Z,5.05
2023-02-14T18:24:09.090Z,5.03
2023-02-14T18:26:37.856Z,4.98
2023-02-14T18:29:08.018Z,4.88
2023-02-14T18:31:41.263Z,4.80
2023-02-14T18:34:10.164Z,4.73
2023-02-14T18:36:39.743Z,4.61
2023-02-14T18:39:09.472Z,4.54
2023-02-14T18:41:37.791Z,4.47
2023-02-14T18:44:07.942Z,4.42
2023-02-14T18:46:39.940Z,4.35
2023-02-14T18:49:08.719Z,4.26
2023-02-14T18:51:39.635Z,4.19
2023-02-14T18:54:10.175Z,4.12
2023-02-14T18:56:39.200Z,4.08
2023-02-14T18:59:10.116Z,4.03
2023-02-14T19:01:40.974Z,4.01
2023-02-14T19:04:12.192Z,3.92
2023-02-14T19:06:43.375Z,3.89
2023-02-14T19:09:12.827Z,3.81
2023-02-14T19:11:42.240Z,3.78
2023-02-14T19:14:13.482Z,3.70
2023-02-14T19:16:44.131Z,3.70
2023-02-14T19:19:12.686Z,3.61
2023-02-14T19:21:41.242Z,3.51
2023-02-14T19:24:09.369Z,3.43
2023-02-14T19:26:40.642Z,3.29
2023-02-14T19:29:12.124Z,3.19
2023-02-14T19:31:42.124Z,3.16
2023-02-14T19:34:19.117Z,3.05
2023-02-14T19:36:48.053Z,3.01
2023-02-14T19:39:16.631Z,2.89
2023-02-14T19:41:45.014Z,2.82
2023-02-14T19:44:17.049Z,2.78
2023-02-14T19:46:47.706Z,2.72
2023-02-14T19:49:17.732Z,2.66
2023-02-14T19:51:46.725Z,2.58
2023-02-14T19:54:15.696Z,2.55
2023-02-14T19:56:45.128Z,2.48
2023-02-14T19:59:19.926Z,2.43
2023-02-14T20:01:51.647Z,2.44
2023-02-14T20:04:21.708Z,2.43
2023-02-14T20:06:51.341Z,2.36
2023-02-14T20:09:22.846Z,2.30
2023-02-14T20:11:52.382Z,2.22
2023-02-14T20:14:24.084Z,2.26
2023-02-14T20:16:53.784Z,2.26
2023-02-14T20:19:24.382Z,2.26
2023-02-14T20:21:52.605Z,2.30
2023-02-14T20:24:24.100Z,2.31
2023-02-14T20:26:54.388Z,2.37
2023-02-14T20:29:25.386Z,2.33
2023-02-14T20:31:55.556Z,2.37
2023-02-14T20:34:23.882Z,2.38
2023-02-14T20:36:55.336Z,2.40
2023-02-14T20:39:28.784Z,2.38
2023-02-14T20:41:57.030Z,2.37
2023-02-14T20:44:26.672Z,2.34
2023-02-14T20:46:55.987Z,2.33
2023-02-14T20:49:25.866Z,2.31
2023-02-14T20:51:54.854Z,2.26
2023-02-14T20:54:24.673Z,2.23
2023-02-14T20:56:52.935Z,2.20
2023-02-14T20:59:26.299Z,2.14
2023-02-14T21:01:57.031Z,2.06
2023-02-14T21:04:25.745Z,1.96
2023-02-14T21:06:53.843Z,1.91
2023-02-14T21:09:21.892Z,1.85
2023-02-14T21:11:50.336Z,1.81
2023-02-14T21:14:20.816Z,1.75
2023-02-14T21:16:49.192Z,1.72
2023-02-14T21:19:19.792Z,1.73
2023-02-14T21:21:48.287Z,1.76
2023-02-14T21:24:17.488Z,1.73
2023-02-14T21:26:45.818Z,1.71
2023-02-14T21:29:14.025Z,1.64
2023-02-14T21:31:42.602Z,1.62
2023-02-14T21:34:10.991Z,1.59
2023-02-14T21:36:40.942Z,1.54
2023-02-14T21:39:09.091Z,1.48
2023-02-14T21:41:37.892Z,1.47
2023-02-14T21:44:07.210Z,1.45
2023-02-14T21:46:37.285Z,1.47
2023-02-14T21:49:24.406Z,1.47
2023-02-14T21:51:54.355Z,1.43
2023-02-14T21:54:23.008Z,1.41
2023-02-14T21:56:51.798Z,1.40
2023-02-14T21:59:20.166Z,1.41
2023-02-14T22:01:48.662Z,1.33
2023-02-14T22:04:16.649Z,1.35
2023-02-14T22:06:44.591Z,1.27
2023-02-14T22:09:17.415Z,1.24
2023-02-14T22:11:47.484Z,1.17
2023-02-14T22:14:16.186Z,1.10
2023-02-14T22:16:44.331Z,1.10
2023-02-14T22:19:14.942Z,1.08
2023-02-14T22:21:44.347Z,1.03
2023-02-14T22:24:14.183Z,0.94
2023-02-14T22:26:42.314Z,0.96
2023-02-14T22:29:12.222Z,1.00
2023-02-14T22:31:44.119Z,1.01
2023-02-14T22:34:14.337Z,1.07
2023-02-14T22:36:42.932Z,1.12
2023-02-14T22:39:16.631Z,1.10
2023-02-14T22:41:45.286Z,1.12
2023-02-14T22:44:13.845Z,1.14
2023-02-14T22:46:42.876Z,1.17
2023-02-14T22:49:15.262Z,1.20
2023-02-14T22:51:44.048Z,1.22
2023-02-14T22:54:16.157Z,1.23
2023-02-14T22:56:45.674Z,1.22
2023-02-14T22:59:18.983Z,1.22
2023-02-14T23:01:48.773Z,1.19
2023-02-14T23:04:17.494Z,1.13
2023-02-14T23:06:45.984Z,1.06
2023-02-14T23:09:16.575Z,1.04
2023-02-14T23:11:47.145Z,1.00
2023-02-14T23:14:34.222Z,1.03
2023-02-14T23:17:22.161Z,1.04
2023-02-14T23:20:07.715Z,1.00
2023-02-14T23:22:37.861Z,0.97
2023-02-14T23:25:09.899Z,0.96
2023-02-14T23:27:40.294Z,0.90
2023-02-14T23:30:10.726Z,0.83
2023-02-14T23:32:39.081Z,0.76
2023-02-14T23:35:07.820Z,0.75
2023-02-14T23:37:36.481Z,0.79
2023-02-14T23:40:05.220Z,0.79
2023-02-14T23:42:34.661Z,0.76
2023-02-14T23:45:17.037Z,0.76
2023-02-14T23:47:46.582Z,0.72
2023-02-14T23:50:14.740Z,0.69
2023-02-14T23:52:44.809Z,0.66
2023-02-14T23:55:13.371Z,0.68
2023-02-14T23:57:42.981Z,0.64
